PWSweather.com
Personal Weather Stations
Station Observations
HAJERN
Hajeren, HvittingfossNO 3647

HajerenHvittingfossNO 3647

Lat: 59.54314324, Lon: 9.95778703

Elevation: 1320

Station Type: Fine Ofset WS 1080

www.hajern.no

High Low Average
Temperature 27.7°F-2.4°C 25.3°F-3.7°C 26.6°F-3.0°C
Dew Point 26.9°F-2.8°C 22.0°F-5.6°C 23.9°F-4.5°C
Winds 15.2 mph 24.5 kmh 3.8 mph 6.1 kmh 8.0 mph S12.9 kmh S
Wind Gusts 19.7 mph31.7 kmh 5.4 mph8.7 kmh 12.0 mph19.3 kmh
Humidity 100% 79% 89%
Pressure 30.06 in1017.9 mb 29.42 in996.3 mb -
Precipitation 0.00 in0.0 mm - -
Hour Temp Dew Point Humidity Winds Wind Gusts Pressure Precip Precip Rate Daily Precip Total
12:00 AM 25.7°F-3.5°C 25.7°F-3.5°C 100% 4.4 mph SSW7.1 kmh SSW 6.9 mph11.1 kmh 30.08 in1018.6 mb 0.00 in0.0 mm 0.00 in0.0 mm 0.00 in0.0 mm
12:15 AM 25.5°F-3.6°C 24.8°F-4.0°C 97% 7.2 mph S11.6 kmh S 9.8 mph15.8 kmh 30.08 in1018.6 mb 0.00 in0.0 mm 0.00 in0.0 mm 0.00 in0.0 mm
12:30 AM 25.5°F-3.6°C 24.3°F-4.3°C 95% 8.8 mph S14.2 kmh S 12.1 mph19.5 kmh 30.07 in1018.3 mb 0.00 in0.0 mm 0.00 in0.0 mm 0.00 in0.0 mm
12:45 AM 25.5°F-3.6°C 24.1°F-4.4°C 94% 9.4 mph S15.1 kmh S 12.1 mph19.5 kmh 30.07 in1018.3 mb 0.00 in0.0 mm 0.00 in0.0 mm 0.00 in0.0 mm
01:00 AM 25.5°F-3.6°C 24.1°F-4.4°C 94% 10.1 mph SSE16.3 kmh SSE 12.1 mph19.5 kmh 30.06 in1017.9 mb 0.00 in0.0 mm 0.00 in0.0 mm 0.00 in0.0 mm
01:15 AM 25.5°F-3.6°C 24.3°F-4.3°C 95% 8.5 mph SSE13.7 kmh SSE 12.1 mph19.5 kmh 30.06 in1017.9 mb 0.00 in0.0 mm 0.00 in0.0 mm 0.00 in0.0 mm
01:30 AM 25.5°F-3.6°C 24.1°F-4.4°C 94% 5.9 mph S9.5 kmh S 8.3 mph13.4 kmh 30.06 in1017.9 mb 0.00 in0.0 mm 0.00 in0.0 mm 0.00 in0.0 mm
01:45 AM 25.3°F-3.7°C 23.9°F-4.5°C 94% 8.6 mph SSE13.8 kmh SSE 10.7 mph17.2 kmh 30.04 in1017.3 mb 0.00 in0.0 mm 0.00 in0.0 mm 0.00 in0.0 mm
02:00 AM 25.3°F-3.7°C 23.6°F-4.7°C 93% 6.5 mph S10.5 kmh S 8.3 mph13.4 kmh 30.04 in1017.3 mb 0.00 in0.0 mm 0.00 in0.0 mm 0.00 in0.0 mm
02:15 AM 25.3°F-3.7°C 23.4°F-4.8°C 92% 6.6 mph S10.6 kmh S 9.2 mph14.8 kmh 30.04 in1017.3 mb 0.00 in0.0 mm 0.00 in0.0 mm 0.00 in0.0 mm
02:30 AM 25.3°F-3.7°C 23.1°F-4.9°C 91% 6.7 mph S10.8 kmh S 13.0 mph20.9 kmh 30.04 in1017.3 mb 0.00 in0.0 mm 0.00 in0.0 mm 0.00 in0.0 mm
02:45 AM 25.3°F-3.7°C 23.1°F-4.9°C 91% 7.0 mph S11.3 kmh S 10.7 mph17.2 kmh 30.03 in1016.9 mb 0.00 in0.0 mm 0.00 in0.0 mm 0.00 in0.0 mm
03:00 AM 25.3°F-3.7°C 22.8°F-5.1°C 90% 8.2 mph S13.2 kmh S 11.4 mph18.3 kmh 30.02 in1016.6 mb 0.00 in0.0 mm 0.00 in0.0 mm 0.00 in0.0 mm
03:15 AM 25.3°F-3.7°C 22.3°F-5.4°C 88% 8.7 mph SSE14.0 kmh SSE 11.4 mph18.3 kmh 30.02 in1016.6 mb 0.00 in0.0 mm 0.00 in0.0 mm 0.00 in0.0 mm
03:30 AM 25.3°F-3.7°C 22.3°F-5.4°C 88% 9.2 mph S14.8 kmh S 14.5 mph23.3 kmh 30.02 in1016.6 mb 0.00 in0.0 mm 0.00 in0.0 mm 0.00 in0.0 mm
03:45 AM 25.3°F-3.7°C 22.6°F-5.2°C 89% 6.5 mph S10.5 kmh S 9.8 mph15.8 kmh 30.01 in1016.3 mb 0.00 in0.0 mm 0.00 in0.0 mm 0.00 in0.0 mm
04:00 AM 25.3°F-3.7°C 22.3°F-5.4°C 88% 9.0 mph SW14.5 kmh SW 11.4 mph18.3 kmh 30.01 in1016.3 mb 0.00 in0.0 mm 0.00 in0.0 mm 0.00 in0.0 mm
04:15 AM 25.3°F-3.7°C 22.0°F-5.6°C 87% 8.1 mph S13.0 kmh S 10.7 mph17.2 kmh 30.00 in1015.9 mb 0.00 in0.0 mm 0.00 in0.0 mm 0.00 in0.0 mm
04:30 AM 25.5°F-3.6°C 22.2°F-5.4°C 87% 9.4 mph S15.1 kmh S 12.1 mph19.5 kmh 29.99 in1015.6 mb 0.00 in0.0 mm 0.00 in0.0 mm 0.00 in0.0 mm
04:45 AM 25.5°F-3.6°C 22.2°F-5.4°C 87% 7.3 mph SSW11.7 kmh SSW 9.8 mph15.8 kmh 29.98 in1015.2 mb 0.00 in0.0 mm 0.00 in0.0 mm 0.00 in0.0 mm
05:00 AM 25.5°F-3.6°C 22.5°F-5.3°C 88% 6.8 mph S10.9 kmh S 10.7 mph17.2 kmh 29.98 in1015.2 mb 0.00 in0.0 mm 0.00 in0.0 mm 0.00 in0.0 mm
05:15 AM 25.7°F-3.5°C 22.4°F-5.3°C 87% 8.9 mph S14.3 kmh S 12.1 mph19.5 kmh 29.98 in1015.2 mb 0.00 in0.0 mm 0.00 in0.0 mm 0.00 in0.0 mm
05:30 AM 25.7°F-3.5°C 22.4°F-5.3°C 87% 6.0 mph SSW9.7 kmh SSW 9.8 mph15.8 kmh 29.98 in1015.2 mb 0.00 in0.0 mm 0.00 in0.0 mm 0.00 in0.0 mm
05:45 AM 25.9°F-3.4°C 22.3°F-5.4°C 86% 7.3 mph S11.7 kmh S 9.2 mph14.8 kmh 29.97 in1014.9 mb 0.00 in0.0 mm 0.00 in0.0 mm 0.00 in0.0 mm
06:00 AM 25.9°F-3.4°C 22.3°F-5.4°C 86% 6.1 mph SSE9.8 kmh SSE 11.4 mph18.3 kmh 29.96 in1014.6 mb 0.00 in0.0 mm 0.00 in0.0 mm 0.00 in0.0 mm
06:15 AM 25.5°F-3.6°C 22.2°F-5.4°C 87% 3.8 mph SSE6.1 kmh SSE 5.4 mph8.7 kmh 29.96 in1014.6 mb 0.00 in0.0 mm 0.00 in0.0 mm 0.00 in0.0 mm
06:30 AM 25.5°F-3.6°C 22.8°F-5.1°C 89% 6.1 mph S9.8 kmh S 9.2 mph14.8 kmh 29.96 in1014.6 mb 0.00 in0.0 mm 0.00 in0.0 mm 0.00 in0.0 mm
06:45 AM 25.5°F-3.6°C 22.8°F-5.1°C 89% 6.1 mph S9.8 kmh S 7.6 mph12.2 kmh 29.95 in1014.2 mb 0.00 in0.0 mm 0.00 in0.0 mm 0.00 in0.0 mm
07:00 AM 25.5°F-3.6°C 23.3°F-4.8°C 91% 7.9 mph S12.7 kmh S 11.4 mph18.3 kmh 29.94 in1013.9 mb 0.00 in0.0 mm 0.00 in0.0 mm 0.00 in0.0 mm
07:15 AM 25.7°F-3.5°C 23.5°F-4.7°C 91% 6.6 mph S10.6 kmh S 10.7 mph17.2 kmh 29.94 in1013.9 mb 0.00 in0.0 mm 0.00 in0.0 mm 0.00 in0.0 mm
07:30 AM 25.9°F-3.4°C 23.4°F-4.8°C 90% 5.8 mph SSE9.3 kmh SSE 9.8 mph15.8 kmh 29.93 in1013.5 mb 0.00 in0.0 mm 0.00 in0.0 mm 0.00 in0.0 mm
07:45 AM 26.1°F-3.3°C 23.8°F-4.6°C 91% 7.3 mph S11.7 kmh S 9.8 mph15.8 kmh 29.93 in1013.5 mb 0.00 in0.0 mm 0.00 in0.0 mm 0.00 in0.0 mm
08:00 AM 26.1°F-3.3°C 24.1°F-4.4°C 92% 7.3 mph SSE11.7 kmh SSE 9.2 mph14.8 kmh 29.92 in1013.2 mb 0.00 in0.0 mm 0.00 in0.0 mm 0.00 in0.0 mm
08:15 AM 26.2°F-3.2°C 24.3°F-4.3°C 92% 6.5 mph SSE10.5 kmh SSE 8.3 mph13.4 kmh 29.91 in1012.9 mb 0.00 in0.0 mm 0.00 in0.0 mm 0.00 in0.0 mm
08:30 AM 26.4°F-3.1°C 24.7°F-4.1°C 93% 8.2 mph S13.2 kmh S 10.7 mph17.2 kmh 29.91 in1012.9 mb 0.00 in0.0 mm 0.00 in0.0 mm 0.00 in0.0 mm
08:45 AM 26.6°F-3.0°C 24.6°F-4.1°C 92% 9.3 mph S15.0 kmh S 11.4 mph18.3 kmh 29.90 in1012.5 mb 0.00 in0.0 mm 0.00 in0.0 mm 0.00 in0.0 mm
09:00 AM 26.6°F-3.0°C 24.4°F-4.2°C 91% 8.6 mph SSE13.8 kmh SSE 12.1 mph19.5 kmh 29.90 in1012.5 mb 0.00 in0.0 mm 0.00 in0.0 mm 0.00 in0.0 mm
09:15 AM 26.6°F-3.0°C 24.6°F-4.1°C 92% 12.5 mph S20.1 kmh S 19.7 mph31.7 kmh 29.89 in1012.2 mb 0.00 in0.0 mm 0.00 in0.0 mm 0.00 in0.0 mm
09:30 AM 26.6°F-3.0°C 24.4°F-4.2°C 91% 12.0 mph SSE19.3 kmh SSE 15.9 mph25.6 kmh 29.89 in1012.2 mb 0.00 in0.0 mm 0.00 in0.0 mm 0.00 in0.0 mm
09:45 AM 27.0°F-2.8°C 23.6°F-4.7°C 87% 11.6 mph S18.7 kmh S 16.8 mph27.0 kmh 29.89 in1012.2 mb 0.00 in0.0 mm 0.00 in0.0 mm 0.00 in0.0 mm
10:00 AM 27.1°F-2.7°C 23.0°F-5.0°C 84% 11.2 mph S18.0 kmh S 13.6 mph21.9 kmh 29.88 in1011.9 mb 0.00 in0.0 mm 0.00 in0.0 mm 0.00 in0.0 mm
10:15 AM 27.3°F-2.6°C 22.3°F-5.4°C 81% 10.8 mph S17.4 kmh S 13.0 mph20.9 kmh 29.87 in1011.5 mb 0.00 in0.0 mm 0.00 in0.0 mm 0.00 in0.0 mm
10:30 AM 27.7°F-2.4°C 22.0°F-5.6°C 79% 7.6 mph SSE12.2 kmh SSE 10.7 mph17.2 kmh 29.86 in1011.2 mb 0.00 in0.0 mm 0.00 in0.0 mm 0.00 in0.0 mm
10:45 AM 27.3°F-2.6°C 22.0°F-5.6°C 80% 8.3 mph S13.4 kmh S 17.4 mph28.0 kmh 29.86 in1011.2 mb 0.00 in0.0 mm 0.00 in0.0 mm 0.00 in0.0 mm
11:00 AM 27.3°F-2.6°C 22.3°F-5.4°C 81% 8.0 mph SSE12.9 kmh SSE 9.8 mph15.8 kmh 29.85 in1010.8 mb 0.00 in0.0 mm 0.00 in0.0 mm 0.00 in0.0 mm
11:15 AM 27.5°F-2.5°C 23.3°F-4.8°C 84% 8.8 mph S14.2 kmh S 12.1 mph19.5 kmh 29.84 in1010.5 mb 0.00 in0.0 mm 0.00 in0.0 mm 0.00 in0.0 mm
11:30 AM 27.3°F-2.6°C 22.3°F-5.4°C 81% 12.0 mph S19.3 kmh S 17.4 mph28.0 kmh 29.84 in1010.5 mb 0.00 in0.0 mm 0.00 in0.0 mm 0.00 in0.0 mm
11:45 AM 27.3°F-2.6°C 22.9°F-5.1°C 83% 10.6 mph S17.1 kmh S 16.8 mph27.0 kmh 29.83 in1010.2 mb 0.00 in0.0 mm 0.00 in0.0 mm 0.00 in0.0 mm
12:00 PM 27.1°F-2.7°C 23.0°F-5.0°C 84% 10.2 mph SSE16.4 kmh SSE 14.5 mph23.3 kmh 29.82 in1009.8 mb 0.00 in0.0 mm 0.00 in0.0 mm 0.00 in0.0 mm
12:15 PM 27.1°F-2.7°C 23.0°F-5.0°C 84% 13.2 mph SSE21.2 kmh SSE 15.9 mph25.6 kmh 29.81 in1009.5 mb 0.00 in0.0 mm 0.00 in0.0 mm 0.00 in0.0 mm
12:30 PM 27.0°F-2.8°C 22.2°F-5.4°C 82% 15.2 mph S24.5 kmh S 19.0 mph30.6 kmh 29.80 in1009.1 mb 0.00 in0.0 mm 0.00 in0.0 mm 0.00 in0.0 mm
12:45 PM 27.1°F-2.7°C 22.4°F-5.3°C 82% 10.6 mph S17.1 kmh S 13.6 mph21.9 kmh 29.79 in1008.8 mb 0.00 in0.0 mm 0.00 in0.0 mm 0.00 in0.0 mm
01:00 PM 27.5°F-2.5°C 23.0°F-5.0°C 83% 9.2 mph SSE14.8 kmh SSE 13.6 mph21.9 kmh 29.78 in1008.5 mb 0.00 in0.0 mm 0.00 in0.0 mm 0.00 in0.0 mm
01:15 PM 27.5°F-2.5°C 23.0°F-5.0°C 83% 8.4 mph S13.5 kmh S 11.4 mph18.3 kmh 29.77 in1008.1 mb 0.00 in0.0 mm 0.00 in0.0 mm 0.00 in0.0 mm
01:30 PM 27.3°F-2.6°C 23.2°F-4.9°C 84% 7.6 mph SSE12.2 kmh SSE 10.7 mph17.2 kmh 29.76 in1007.8 mb 0.00 in0.0 mm 0.00 in0.0 mm 0.00 in0.0 mm
01:45 PM 27.3°F-2.6°C 23.7°F-4.6°C 86% 9.2 mph S14.8 kmh S 13.6 mph21.9 kmh 29.75 in1007.5 mb 0.00 in0.0 mm 0.00 in0.0 mm 0.00 in0.0 mm
02:00 PM 27.5°F-2.5°C 23.6°F-4.7°C 85% 9.5 mph SSE15.3 kmh SSE 13.6 mph21.9 kmh 29.74 in1007.1 mb 0.00 in0.0 mm 0.00 in0.0 mm 0.00 in0.0 mm
02:15 PM 27.5°F-2.5°C 23.6°F-4.7°C 85% 6.3 mph S10.1 kmh S 7.6 mph12.2 kmh 29.73 in1006.8 mb 0.00 in0.0 mm 0.00 in0.0 mm 0.00 in0.0 mm
02:30 PM 27.5°F-2.5°C 23.3°F-4.8°C 84% 7.7 mph S12.4 kmh S 12.1 mph19.5 kmh 29.72 in1006.4 mb 0.00 in0.0 mm 0.00 in0.0 mm 0.00 in0.0 mm
02:45 PM 27.5°F-2.5°C 23.6°F-4.7°C 85% 8.5 mph SE13.7 kmh SE 15.9 mph25.6 kmh 29.71 in1006.1 mb 0.00 in0.0 mm 0.00 in0.0 mm 0.00 in0.0 mm
03:00 PM 27.5°F-2.5°C 23.9°F-4.5°C 86% 6.8 mph S10.9 kmh S 11.4 mph18.3 kmh 29.71 in1006.1 mb 0.00 in0.0 mm 0.00 in0.0 mm 0.00 in0.0 mm
03:15 PM 27.3°F-2.6°C 24.3°F-4.3°C 88% 9.0 mph SE14.5 kmh SE 15.2 mph24.5 kmh 29.70 in1005.8 mb 0.00 in0.0 mm 0.00 in0.0 mm 0.00 in0.0 mm
03:30 PM 27.3°F-2.6°C 23.7°F-4.6°C 86% 9.1 mph S14.6 kmh S 13.6 mph21.9 kmh 29.70 in1005.8 mb 0.00 in0.0 mm 0.00 in0.0 mm 0.00 in0.0 mm
03:45 PM 27.5°F-2.5°C 23.6°F-4.7°C 85% 6.9 mph SSE11.1 kmh SSE 11.4 mph18.3 kmh 29.68 in1005.1 mb 0.00 in0.0 mm 0.00 in0.0 mm 0.00 in0.0 mm
04:00 PM 27.7°F-2.4°C 22.9°F-5.1°C 82% 7.2 mph SSE11.6 kmh SSE 10.7 mph17.2 kmh 29.68 in1005.1 mb 0.00 in0.0 mm 0.00 in0.0 mm 0.00 in0.0 mm
04:15 PM 27.7°F-2.4°C 23.5°F-4.7°C 84% 9.7 mph SE15.6 kmh SE 14.5 mph23.3 kmh 29.67 in1004.7 mb 0.00 in0.0 mm 0.00 in0.0 mm 0.00 in0.0 mm
04:30 PM 27.7°F-2.4°C 23.8°F-4.6°C 85% 7.8 mph SSE12.6 kmh SSE 12.1 mph19.5 kmh 29.66 in1004.4 mb 0.00 in0.0 mm 0.00 in0.0 mm 0.00 in0.0 mm
04:45 PM 27.5°F-2.5°C 23.9°F-4.5°C 86% 9.2 mph S14.8 kmh S 15.2 mph24.5 kmh 29.65 in1004.1 mb 0.00 in0.0 mm 0.00 in0.0 mm 0.00 in0.0 mm
05:00 PM 27.3°F-2.6°C 24.3°F-4.3°C 88% 9.9 mph S15.9 kmh S 13.6 mph21.9 kmh 29.65 in1004.1 mb 0.00 in0.0 mm 0.00 in0.0 mm 0.00 in0.0 mm
05:15 PM 27.1°F-2.7°C 24.1°F-4.4°C 88% 8.9 mph SE14.3 kmh SE 11.4 mph18.3 kmh 29.64 in1003.7 mb 0.00 in0.0 mm 0.00 in0.0 mm 0.00 in0.0 mm
05:30 PM 27.1°F-2.7°C 23.5°F-4.7°C 86% 10.4 mph SSE16.7 kmh SSE 17.4 mph28.0 kmh 29.63 in1003.4 mb 0.00 in0.0 mm 0.00 in0.0 mm 0.00 in0.0 mm
05:45 PM 27.0°F-2.8°C 23.6°F-4.7°C 87% 9.8 mph SSE15.8 kmh SSE 11.4 mph18.3 kmh 29.62 in1003.0 mb 0.00 in0.0 mm 0.00 in0.0 mm 0.00 in0.0 mm
06:00 PM 27.0°F-2.8°C 23.9°F-4.5°C 88% 7.6 mph SSE12.2 kmh SSE 13.0 mph20.9 kmh 29.62 in1003.0 mb 0.00 in0.0 mm 0.00 in0.0 mm 0.00 in0.0 mm
06:15 PM 27.0°F-2.8°C 24.2°F-4.3°C 89% 10.0 mph SE16.1 kmh SE 16.8 mph27.0 kmh 29.61 in1002.7 mb 0.00 in0.0 mm 0.00 in0.0 mm 0.00 in0.0 mm
06:30 PM 27.0°F-2.8°C 25.0°F-3.9°C 92% 8.5 mph SSE13.7 kmh SSE 13.6 mph21.9 kmh 29.59 in1002.0 mb 0.00 in0.0 mm 0.00 in0.0 mm 0.00 in0.0 mm
06:45 PM 26.8°F-2.9°C 25.0°F-3.9°C 93% 10.0 mph S16.1 kmh S 15.2 mph24.5 kmh 29.59 in1002.0 mb 0.00 in0.0 mm 0.00 in0.0 mm 0.00 in0.0 mm
07:00 PM 26.8°F-2.9°C 25.3°F-3.7°C 94% 8.9 mph S14.3 kmh S 15.2 mph24.5 kmh 29.58 in1001.7 mb 0.00 in0.0 mm 0.00 in0.0 mm 0.00 in0.0 mm
07:15 PM 26.8°F-2.9°C 25.3°F-3.7°C 94% 8.5 mph SSE13.7 kmh SSE 10.7 mph17.2 kmh 29.57 in1001.4 mb 0.00 in0.0 mm 0.00 in0.0 mm 0.00 in0.0 mm
07:30 PM 26.8°F-2.9°C 25.3°F-3.7°C 94% 6.8 mph SE10.9 kmh SE 10.7 mph17.2 kmh 29.57 in1001.4 mb 0.00 in0.0 mm 0.00 in0.0 mm 0.00 in0.0 mm
07:45 PM 26.8°F-2.9°C 25.3°F-3.7°C 94% 8.5 mph SE13.7 kmh SE 12.1 mph19.5 kmh 29.56 in1001.0 mb 0.00 in0.0 mm 0.00 in0.0 mm 0.00 in0.0 mm
08:00 PM 26.8°F-2.9°C 25.0°F-3.9°C 93% 7.6 mph SE12.2 kmh SE 12.1 mph19.5 kmh 29.55 in1000.7 mb 0.00 in0.0 mm 0.00 in0.0 mm 0.00 in0.0 mm
08:15 PM 26.8°F-2.9°C 25.0°F-3.9°C 93% 8.3 mph E13.4 kmh E 13.0 mph20.9 kmh 29.54 in1000.3 mb 0.00 in0.0 mm 0.00 in0.0 mm 0.00 in0.0 mm
08:30 PM 26.8°F-2.9°C 25.0°F-3.9°C 93% 7.6 mph S12.2 kmh S 13.6 mph21.9 kmh 29.53 in1000.0 mb 0.00 in0.0 mm 0.00 in0.0 mm 0.00 in0.0 mm
08:45 PM 26.8°F-2.9°C 25.6°F-3.6°C 95% 7.0 mph SSE11.3 kmh SSE 9.8 mph15.8 kmh 29.52 in999.7 mb 0.00 in0.0 mm 0.00 in0.0 mm 0.00 in0.0 mm
09:00 PM 26.8°F-2.9°C 26.1°F-3.3°C 97% 7.6 mph S12.2 kmh S 11.4 mph18.3 kmh 29.51 in999.3 mb 0.00 in0.0 mm 0.00 in0.0 mm 0.00 in0.0 mm
09:15 PM 26.8°F-2.9°C 26.8°F-2.9°C 100% 7.3 mph SSE11.7 kmh SSE 13.0 mph20.9 kmh 29.50 in999.0 mb 0.00 in0.0 mm 0.00 in0.0 mm 0.00 in0.0 mm
09:30 PM 27.0°F-2.8°C 26.7°F-2.9°C 99% 7.3 mph SSE11.7 kmh SSE 11.4 mph18.3 kmh 29.49 in998.6 mb 0.00 in0.0 mm 0.00 in0.0 mm 0.00 in0.0 mm
09:45 PM 27.1°F-2.7°C 26.9°F-2.8°C 99% 7.9 mph SE12.7 kmh SE 11.4 mph18.3 kmh 29.48 in998.3 mb 0.00 in0.0 mm 0.00 in0.0 mm 0.00 in0.0 mm
10:00 PM 27.1°F-2.7°C 26.9°F-2.8°C 99% 7.3 mph SSE11.7 kmh SSE 14.5 mph23.3 kmh 29.47 in998.0 mb 0.00 in0.0 mm 0.00 in0.0 mm 0.00 in0.0 mm
10:15 PM 27.1°F-2.7°C 26.9°F-2.8°C 99% 7.8 mph SE12.6 kmh SE 14.5 mph23.3 kmh 29.47 in998.0 mb 0.00 in0.0 mm 0.00 in0.0 mm 0.00 in0.0 mm
10:30 PM 27.1°F-2.7°C 26.9°F-2.8°C 99% 8.9 mph SE14.3 kmh SE 12.1 mph19.5 kmh 29.46 in997.6 mb 0.00 in0.0 mm 0.00 in0.0 mm 0.00 in0.0 mm
10:45 PM 27.0°F-2.8°C 26.7°F-2.9°C 99% 6.6 mph SE10.6 kmh SE 10.7 mph17.2 kmh 29.45 in997.3 mb 0.00 in0.0 mm 0.00 in0.0 mm 0.00 in0.0 mm
11:00 PM 27.0°F-2.8°C 26.7°F-2.9°C 99% 6.3 mph SE10.1 kmh SE 9.8 mph15.8 kmh 29.44 in997.0 mb 0.00 in0.0 mm 0.00 in0.0 mm 0.00 in0.0 mm
11:15 PM 27.0°F-2.8°C 26.7°F-2.9°C 99% 5.4 mph SE8.7 kmh SE 9.2 mph14.8 kmh 29.44 in997.0 mb 0.00 in0.0 mm 0.00 in0.0 mm 0.00 in0.0 mm
11:30 PM 26.8°F-2.9°C 26.6°F-3.0°C 99% 7.9 mph SE12.7 kmh SE 13.0 mph20.9 kmh 29.43 in996.6 mb 0.00 in0.0 mm 0.00 in0.0 mm 0.00 in0.0 mm
11:45 PM 26.8°F-2.9°C 26.6°F-3.0°C 99% 5.8 mph SSE9.3 kmh SSE 9.8 mph15.8 kmh 29.42 in996.3 mb 0.00 in0.0 mm 0.00 in0.0 mm 0.00 in0.0 mm